Time;durP1;ratioP1;P1;durP2;ratioP2;P2;SDS_P1;SDS_P2;PMS_P1;PMS_P2;Temp;Humidity;BMP_temperature;BMP_pressure;BME280_temperature;BME280_humidity;BME280_pressure;Samples;Min_cycle;Max_cycle;Signal;HPM_P1;HPM_P2
2023/07/07 00:01:52;;;;;;;2.60;1.40;;;;;;;13.66;100.00;101142.72;5175948;28;20045;-73
2023/07/07 00:04:23;;;;;;;3.83;1.30;;;;;;;13.54;100.00;101144.97;5175201;28;20136;-72
2023/07/07 00:06:54;;;;;;;3.78;1.40;;;;;;;13.78;100.00;101141.38;5176766;28;20163;-69
2023/07/07 00:09:27;;;;;;;3.05;1.23;;;;;;;13.63;100.00;101155.97;5176171;28;20033;-72
2023/07/07 00:11:57;;;;;;;4.15;1.30;;;;;;;13.55;100.00;101160.66;5166542;28;20332;-71
2023/07/07 00:14:28;;;;;;;3.10;1.40;;;;;;;13.56;100.00;101162.38;5171960;28;20021;-71
2023/07/07 00:17:01;;;;;;;2.47;1.30;;;;;;;13.66;100.00;101154.97;5170748;28;20022;-72
2023/07/07 00:19:33;;;;;;;2.42;1.25;;;;;;;13.57;100.00;101157.97;5171580;28;20032;-72
2023/07/07 00:22:06;;;;;;;3.65;1.40;;;;;;;13.49;100.00;101155.66;5164169;28;20523;-72
2023/07/07 00:24:36;;;;;;;2.70;1.45;;;;;;;13.51;100.00;101147.69;5171377;28;20072;-72
2023/07/07 00:27:07;;;;;;;2.70;1.42;;;;;;;13.84;100.00;101151.63;5176002;28;20519;-72
2023/07/07 00:29:37;;;;;;;3.78;1.50;;;;;;;13.62;100.00;101151.63;5175877;28;20044;-72
2023/07/07 00:32:08;;;;;;;2.45;1.42;;;;;;;13.95;100.00;101146.81;5175335;28;20040;-72
2023/07/07 00:34:38;;;;;;;4.45;1.38;;;;;;;14.06;100.00;101152.50;5168000;28;20021;-72
2023/07/07 00:37:08;;;;;;;2.47;1.35;;;;;;;13.85;100.00;101148.97;5172212;28;20514;-73
2023/07/07 00:39:39;;;;;;;2.72;1.38;;;;;;;13.83;100.00;101148.16;5174638;28;20021;-72
2023/07/07 00:42:10;;;;;;;3.78;1.52;;;;;;;13.71;100.00;101158.31;5167808;28;20033;-72
2023/07/07 00:45:11;;;;;;;2.00;1.30;;;;;;;13.53;100.00;101151.97;5177553;28;20261;-72
2023/07/07 00:47:48;;;;;;;7.22;1.58;;;;;;;13.37;100.00;101160.50;5197704;23;21229;-72
2023/07/07 00:50:21;;;;;;;8.32;1.55;;;;;;;13.00;100.00;101162.75;5146681;28;20030;-72
2023/07/07 00:52:52;;;;;;;2.63;1.60;;;;;;;12.98;100.00;101164.56;5133935;28;20080;-73
2023/07/07 00:55:33;;;;;;;2.67;1.10;;;;;;;12.96;100.00;101162.94;5135973;28;20031;-72
2023/07/07 00:58:08;;;;;;;2.38;1.38;;;;;;;13.21;100.00;101165.47;5138988;28;20022;-72
2023/07/07 01:00:42;;;;;;;2.97;1.27;;;;;;;13.16;100.00;101177.91;5150686;28;20029;-72
2023/07/07 01:03:19;;;;;;;2.33;1.27;;;;;;;13.27;100.00;101165.22;5145531;28;20057;-73
2023/07/07 01:05:53;;;;;;;4.30;1.30;;;;;;;13.12;100.00;101171.06;5161398;28;20018;-72
2023/07/07 01:08:24;;;;;;;3.40;1.50;;;;;;;13.50;100.00;101169.63;5152192;28;20488;-72
2023/07/07 01:10:54;;;;;;;5.20;1.40;;;;;;;13.32;100.00;101167.69;5147077;28;20042;-73
2023/07/07 01:13:26;;;;;;;1.83;1.10;;;;;;;13.30;100.00;101159.00;5155054;28;20392;-73
2023/07/07 01:16:18;;;;;;;6.03;1.52;;;;;;;13.20;100.00;101162.91;5153247;28;20061;-72
2023/07/07 01:19:05;;;;;;;4.32;1.20;;;;;;;13.38;100.00;101162.22;5156636;28;20531;-71
2023/07/07 01:21:47;;;;;;;2.83;1.20;;;;;;;13.13;100.00;101166.66;5152910;28;20033;-73
2023/07/07 01:24:46;;;;;;;3.17;1.95;;;;;;;12.99;100.00;101171.53;5151097;28;20033;-72
2023/07/07 01:27:46;;;;;;;2.97;1.30;;;;;;;12.87;100.00;101166.72;5149626;28;20053;-72
2023/07/07 01:30:45;;;;;;;2.25;1.33;;;;;;;12.89;100.00;101172.75;5145063;28;20052;-72
2023/07/07 01:33:19;;;;;;;3.53;1.17;;;;;;;13.09;100.00;101172.94;5136381;28;20492;-72
2023/07/07 01:35:50;;;;;;;2.30;1.20;;;;;;;12.98;100.00;101169.00;5143457;28;20530;-72
2023/07/07 01:38:43;;;;;;;4.50;1.42;;;;;;;13.09;100.00;101170.31;5147281;28;20038;-73
2023/07/07 01:41:57;;;;;;;2.40;1.33;;;;;;;13.08;100.00;101168.59;5148112;28;20029;-72
2023/07/07 01:44:36;;;;;;;3.38;1.40;;;;;;;12.98;100.00;101169.00;5122591;28;20190;-73
2023/07/07 01:47:07;;;;;;;3.15;1.58;;;;;;;12.88;100.00;101163.19;5153165;28;20109;-73
2023/07/07 01:49:40;;;;;;;3.13;1.50;;;;;;;12.90;100.00;101169.22;5153850;28;20120;-72
2023/07/07 01:52:29;;;;;;;3.03;1.63;;;;;;;12.91;100.00;101168.31;5154994;28;20108;-73
2023/07/07 01:55:06;;;;;;;3.92;1.70;;;;;;;12.93;100.00;101162.09;5148693;28;20026;-72
2023/07/07 01:57:39;;;;;;;2.95;1.60;;;;;;;12.80;100.00;101166.97;5151224;28;20229;-72
2023/07/07 02:00:11;;;;;;;5.30;1.70;;;;;;;12.87;100.00;101163.22;5135698;28;20029;-72
2023/07/07 02:02:41;;;;;;;2.30;1.63;;;;;;;12.72;100.00;101175.13;5143181;28;20109;-72
2023/07/07 02:05:13;;;;;;;3.92;1.38;;;;;;;12.84;100.00;101166.78;5141355;28;20160;-72
2023/07/07 02:07:43;;;;;;;2.60;1.30;;;;;;;12.92;100.00;101156.91;5153311;28;20034;-72
2023/07/07 02:10:14;;;;;;;4.78;1.50;;;;;;;12.91;100.00;101160.44;5151242;28;20051;-72
2023/07/07 02:12:45;;;;;;;2.67;1.33;;;;;;;12.71;100.00;101170.78;5167036;28;20109;-72
2023/07/07 02:15:16;;;;;;;2.67;1.50;;;;;;;12.80;100.00;101159.94;5150666;28;20108;-72
2023/07/07 02:17:47;;;;;;;2.97;1.50;;;;;;;12.64;100.00;101164.00;5155499;28;20124;-72
2023/07/07 02:20:18;;;;;;;4.95;1.60;;;;;;;12.65;100.00;101167.50;5149650;28;20480;-72
2023/07/07 02:22:48;;;;;;;3.70;2.00;;;;;;;12.65;100.00;101170.97;5156256;28;20029;-71
2023/07/07 02:25:18;;;;;;;2.35;1.58;;;;;;;12.59;100.00;101172.94;5151129;28;20026;-72
2023/07/07 02:27:49;;;;;;;3.47;1.73;;;;;;;12.87;100.00;101168.47;5154859;28;20149;-72
2023/07/07 02:30:19;;;;;;;3.42;1.58;;;;;;;12.76;100.00;101175.84;5153196;28;20081;-72
2023/07/07 02:32:50;;;;;;;2.50;1.50;;;;;;;12.74;100.00;101181.16;5152461;28;20034;-72
2023/07/07 02:35:21;;;;;;;2.58;1.52;;;;;;;12.87;100.00;101177.22;5155688;28;20053;-72
2023/07/07 02:37:51;;;;;;;2.97;1.90;;;;;;;12.93;100.00;101163.91;5148422;28;20080;-72
2023/07/07 02:40:21;;;;;;;3.08;1.67;;;;;;;12.86;100.00;101175.50;5153656;28;20030;-71
2023/07/07 02:42:52;;;;;;;3.45;1.58;;;;;;;12.85;100.00;101178.16;5140406;28;20048;-72
2023/07/07 02:45:22;;;;;;;4.75;1.77;;;;;;;12.99;100.00;101176.78;5153056;28;20029;-72
2023/07/07 02:47:52;;;;;;;4.18;1.75;;;;;;;12.88;100.00;101178.91;5147674;28;20367;-73
2023/07/07 02:50:23;;;;;;;5.35;1.90;;;;;;;12.67;100.00;101184.88;5153365;28;20066;-73
2023/07/07 02:52:53;;;;;;;5.53;1.90;;;;;;;12.76;100.00;101181.97;5154172;28;20140;-73
2023/07/07 02:55:24;;;;;;;3.75;1.90;;;;;;;12.68;100.00;101177.88;5154762;28;20060;-72
2023/07/07 02:57:54;;;;;;;2.70;1.60;;;;;;;12.88;100.00;101175.44;5155042;28;20045;-73
2023/07/07 03:00:25;;;;;;;3.28;1.50;;;;;;;12.95;100.00;101177.81;5150753;28;20431;-73
2023/07/07 03:02:55;;;;;;;3.00;1.80;;;;;;;12.80;100.00;101178.31;5150425;28;20026;-73
2023/07/07 03:05:26;;;;;;;5.38;2.08;;;;;;;12.83;100.00;101188.69;5150255;28;20026;-72
2023/07/07 03:07:56;;;;;;;6.88;2.00;;;;;;;12.78;100.00;101189.78;5149986;28;20476;-72
2023/07/07 03:10:27;;;;;;;3.28;1.60;;;;;;;12.71;100.00;101190.91;5158276;28;20534;-72
2023/07/07 03:12:57;;;;;;;3.72;1.80;;;;;;;12.63;100.00;101185.91;5144592;28;20022;-72
2023/07/07 03:15:38;;;;;;;6.00;1.90;;;;;;;12.87;100.00;101179.84;5151226;28;20037;-73
2023/07/07 03:18:09;;;;;;;2.55;1.58;;;;;;;12.98;100.00;101189.06;5150833;28;20052;-73
2023/07/07 03:20:49;;;;;;;2.67;1.58;;;;;;;12.94;100.00;101197.09;5134905;28;20022;-72
2023/07/07 03:23:19;;;;;;;8.48;1.70;;;;;;;12.66;100.00;101196.28;5138782;28;20614;-72
2023/07/07 03:25:50;;;;;;;12.52;2.40;;;;;;;12.62;100.00;101193.84;5154787;28;20041;-73
2023/07/07 03:28:20;;;;;;;3.50;1.80;;;;;;;12.70;100.00;101197.06;5149566;28;20388;-73
2023/07/07 03:30:50;;;;;;;3.55;1.85;;;;;;;12.74;100.00;101199.53;5154884;28;20030;-73
2023/07/07 03:33:21;;;;;;;7.00;2.38;;;;;;;12.61;100.00;101192.13;5148877;28;20034;-72
2023/07/07 03:35:51;;;;;;;4.78;1.80;;;;;;;12.77;100.00;101188.91;5149933;28;20026;-73
2023/07/07 03:38:21;;;;;;;12.65;2.30;;;;;;;12.81;100.00;101195.75;5166946;28;20026;-72
2023/07/07 03:40:52;;;;;;;2.80;1.70;;;;;;;12.83;100.00;101198.34;5145543;28;20109;-73
2023/07/07 03:43:22;;;;;;;6.72;1.92;;;;;;;12.70;100.00;101197.91;5151539;28;20034;-72
2023/07/07 03:45:53;;;;;;;2.72;1.65;;;;;;;12.77;100.00;101199.41;5153625;28;20061;-73
2023/07/07 03:48:23;;;;;;;9.30;1.85;;;;;;;12.70;100.00;101197.91;5149709;28;20037;-72
2023/07/07 03:51:02;;;;;;;3.97;1.70;;;;;;;12.65;100.00;101191.94;5149005;28;20026;-72
2023/07/07 03:53:33;;;;;;;4.72;1.60;;;;;;;12.73;100.00;101195.19;5137678;28;20466;-72
2023/07/07 03:56:07;;;;;;;4.07;1.60;;;;;;;12.80;100.00;101201.94;5136106;28;20113;-73
2023/07/07 03:58:38;;;;;;;4.20;1.52;;;;;;;12.91;100.00;101203.25;5140169;28;20022;-72
2023/07/07 04:01:11;;;;;;;6.80;1.77;;;;;;;13.02;100.00;101205.53;5146198;28;20048;-73
2023/07/07 04:03:42;;;;;;;3.47;1.45;;;;;;;13.01;100.00;101209.06;5142310;28;20310;-73
2023/07/07 04:06:15;;;;;;;8.02;1.80;;;;;;;13.18;100.00;101211.94;5139205;28;20025;-73
2023/07/07 04:08:46;;;;;;;3.47;1.38;;;;;;;13.15;100.00;101204.19;5133994;28;20184;-73
2023/07/07 04:11:19;;;;;;;4.75;1.80;;;;;;;13.20;100.00;101208.38;5139138;28;20114;-72
2023/07/07 04:13:50;;;;;;;3.47;1.70;;;;;;;13.34;100.00;101207.84;5119049;28;20035;-72
2023/07/07 04:16:24;;;;;;;4.25;1.45;;;;;;;13.35;100.00;101214.81;5139352;28;20038;-72
2023/07/07 04:18:55;;;;;;;6.75;1.77;;;;;;;13.36;100.00;101216.53;5135226;28;20400;-73
2023/07/07 04:21:28;;;;;;;3.20;1.88;;;;;;;13.36;100.00;101221.78;5138512;28;20137;-73
2023/07/07 04:24:00;;;;;;;2.60;1.60;;;;;;;13.23;100.00;101215.28;5139280;28;20033;-72
2023/07/07 04:26:31;;;;;;;3.72;1.73;;;;;;;13.51;100.00;101221.22;5133714;28;20276;-73
2023/07/07 04:29:01;;;;;;;5.38;1.88;;;;;;;13.62;100.00;101213.81;5139828;28;20026;-73
2023/07/07 04:31:32;;;;;;;4.60;2.00;;;;;;;13.77;100.00;101218.50;5137078;28;20026;-73
2023/07/07 04:34:02;;;;;;;3.55;1.70;;;;;;;13.85;100.00;101219.91;5141326;28;20049;-73
2023/07/07 04:36:32;;;;;;;7.18;1.73;;;;;;;13.86;100.00;101216.34;5146462;28;20559;-72
2023/07/07 04:39:03;;;;;;;7.95;2.85;;;;;;;14.18;100.00;101210.72;5138080;28;20374;-73
2023/07/07 04:41:34;;;;;;;2.72;1.63;;;;;;;14.78;99.66;101220.50;5148747;28;20026;-73
2023/07/07 04:44:05;;;;;;;3.17;1.73;;;;;;;14.97;98.14;101224.91;5140220;28;20564;-73
2023/07/07 04:46:37;;;;;;;3.05;1.70;;;;;;;15.77;95.93;101224.78;5134102;28;20041;-73
2023/07/07 04:49:08;;;;;;;4.15;1.20;;;;;;;17.59;92.85;101225.19;5138057;28;20037;-73
2023/07/07 04:51:40;;;;;;;4.13;1.30;;;;;;;20.15;78.86;101207.13;5130834;28;20503;-74
2023/07/07 04:54:12;;;;;;;2.78;1.00;;;;;;;21.43;72.32;101202.72;5134993;28;20427;-73
2023/07/07 04:56:44;;;;;;;5.45;1.30;;;;;;;21.59;72.63;101208.66;5134393;28;20154;-74
2023/07/07 04:59:16;;;;;;;5.40;1.23;;;;;;;23.58;63.48;101207.69;5139354;28;20061;-74
2023/07/07 05:01:47;;;;;;;3.13;1.20;;;;;;;23.59;64.08;101209.38;5135086;28;20231;-73
2023/07/07 05:04:17;;;;;;;2.42;0.85;;;;;;;26.11;59.24;101198.41;5151352;28;20508;-74
2023/07/07 05:06:47;;;;;;;3.65;1.02;;;;;;;26.71;58.36;101198.22;5138848;28;20026;-72
2023/07/07 05:09:18;;;;;;;2.28;1.00;;;;;;;26.11;59.35;101209.13;5140224;28;20045;-73
2023/07/07 05:11:48;;;;;;;3.65;1.02;;;;;;;25.05;61.50;101214.09;5149810;28;20030;-73
2023/07/07 05:14:18;;;;;;;3.00;0.90;;;;;;;24.13;63.07;101215.66;5153284;28;20038;-74
2023/07/07 05:16:49;;;;;;;4.07;0.98;;;;;;;25.63;61.00;101213.47;5151135;28;20031;-74
2023/07/07 05:19:19;;;;;;;3.00;1.08;;;;;;;24.95;61.98;101210.50;5147564;28;20121;-74
2023/07/07 05:21:49;;;;;;;3.63;1.20;;;;;;;26.28;57.89;101206.63;5149008;28;20191;-74
2023/07/07 05:24:20;;;;;;;3.78;1.05;;;;;;;28.07;56.83;101195.69;5141757;28;20038;-74
2023/07/07 05:26:50;;;;;;;5.53;1.10;;;;;;;29.45;53.33;101202.03;5148975;28;20030;-73
2023/07/07 05:29:22;;;;;;;4.03;0.90;;;;;;;28.04;54.53;101207.63;5136992;28;20033;-72
2023/07/07 05:31:52;;;;;;;2.40;0.93;;;;;;;29.36;53.56;101208.38;5147901;28;20029;-72
2023/07/07 05:34:23;;;;;;;2.90;1.20;;;;;;;29.51;53.03;101200.56;5152009;28;20064;-73
2023/07/07 05:36:53;;;;;;;2.95;1.20;;;;;;;29.07;52.03;101201.63;5148395;28;20034;-73
2023/07/07 05:39:23;;;;;;;1.40;0.80;;;;;;;27.76;57.85;101208.63;5154543;28;20034;-72
2023/07/07 05:41:54;;;;;;;2.20;0.80;;;;;;;26.92;60.60;101221.25;5149547;28;20286;-72
2023/07/07 05:44:24;;;;;;;1.98;1.10;;;;;;;26.39;60.62;101213.69;5153285;28;20026;-73
2023/07/07 05:46:55;;;;;;;3.88;0.88;;;;;;;27.45;58.18;101209.00;5146856;28;20136;-71
2023/07/07 05:49:25;;;;;;;1.90;0.93;;;;;;;26.45;58.74;101213.13;5153264;28;20488;-72
2023/07/07 05:51:55;;;;;;;2.03;0.80;;;;;;;26.53;60.35;101205.28;5151831;28;20030;-73
2023/07/07 05:54:26;;;;;;;3.22;1.02;;;;;;;25.21;63.12;101214.50;5145496;28;20034;-73
2023/07/07 05:56:59;;;;;;;2.97;1.10;;;;;;;24.66;67.16;101214.78;5151595;28;20116;-71
2023/07/07 05:59:30;;;;;;;1.88;0.98;;;;;;;24.57;66.81;101217.38;5150254;28;20049;-72
2023/07/07 06:02:00;;;;;;;2.47;0.95;;;;;;;24.14;68.83;101225.38;5146268;28;20030;-72
2023/07/07 06:04:31;;;;;;;2.05;0.90;;;;;;;23.60;69.11;101215.53;5153658;28;20407;-72
2023/07/07 06:07:01;;;;;;;2.42;1.00;;;;;;;23.71;68.07;101224.41;5143874;28;20522;-72
2023/07/07 06:09:31;;;;;;;1.38;1.00;;;;;;;23.67;66.89;101225.63;5145631;28;20135;-72
2023/07/07 06:12:02;;;;;;;6.03;1.27;;;;;;;23.66;68.85;101229.25;5141985;28;20224;-72
2023/07/07 06:14:32;;;;;;;1.85;1.00;;;;;;;23.23;71.16;101230.91;5127111;28;20048;-74
2023/07/07 06:17:03;;;;;;;2.15;1.00;;;;;;;23.12;72.82;101230.91;5146570;28;20314;-72
2023/07/07 06:19:33;;;;;;;2.95;1.05;;;;;;;22.59;73.74;101237.72;5147464;28;20041;-72
2023/07/07 06:22:04;;;;;;;1.52;0.90;;;;;;;22.95;71.43;101233.97;5143088;28;20081;-71
2023/07/07 06:24:34;;;;;;;6.68;1.10;;;;;;;23.39;70.35;101222.59;5146511;28;20446;-72
2023/07/07 06:27:05;;;;;;;3.75;0.98;;;;;;;24.18;68.19;101220.63;5142476;28;20113;-72
2023/07/07 06:29:35;;;;;;;2.00;1.00;;;;;;;23.68;70.63;101223.81;5148822;28;20541;-72
2023/07/07 06:32:06;;;;;;;3.03;0.90;;;;;;;24.55;67.35;101216.66;5145098;28;20554;-72
2023/07/07 06:34:37;;;;;;;2.63;1.05;;;;;;;24.99;66.70;101217.28;5151525;28;20022;-72
2023/07/07 06:37:07;;;;;;;2.10;1.23;;;;;;;24.96;67.21;101228.25;5170070;28;20072;-71
2023/07/07 06:39:37;;;;;;;1.73;0.75;;;;;;;25.43;66.03;101233.94;5147182;28;20350;-72
2023/07/07 06:42:08;;;;;;;1.42;1.02;;;;;;;25.22;66.05;101230.44;5143810;28;20092;-72
2023/07/07 06:44:40;;;;;;;2.08;0.90;;;;;;;25.78;64.34;101228.16;5145954;28;20022;-72
2023/07/07 06:47:16;;;;;;;1.75;0.82;;;;;;;26.28;65.80;101225.41;5146646;28;20038;-72
2023/07/07 06:52:19;;;;;;;3.45;0.80;;;;;;;26.50;59.63;101232.41;5155459;28;20054;-75
2023/07/07 06:54:49;;;;;;;1.83;0.70;;;;;;;26.42;57.26;101230.38;5158937;28;20518;-74
2023/07/07 06:57:20;;;;;;;1.63;0.90;;;;;;;27.15;55.00;101225.31;5140671;28;20313;-75
2023/07/07 06:59:50;;;;;;;2.60;0.90;;;;;;;27.34;55.41;101228.81;5139716;28;20040;-76
2023/07/07 07:02:21;;;;;;;2.10;0.88;;;;;;;27.27;55.70;101235.75;5140807;28;20033;-76
2023/07/07 07:04:51;;;;;;;1.63;0.80;;;;;;;27.70;54.72;101232.50;5142362;28;20432;-74
2023/07/07 07:07:21;;;;;;;1.20;0.90;;;;;;;27.72;55.20;101231.41;5141169;28;20026;-74
2023/07/07 07:09:52;;;;;;;3.10;1.35;;;;;;;27.20;57.68;101237.34;5156546;28;20030;-74
2023/07/07 07:12:22;;;;;;;1.58;0.95;;;;;;;27.24;55.45;101236.03;5158799;28;20334;-74
2023/07/07 07:14:52;;;;;;;1.40;0.80;;;;;;;27.61;54.46;101228.88;5135369;28;20057;-74
2023/07/07 07:17:24;;;;;;;2.10;0.68;;;;;;;28.38;54.92;101227.53;5134836;28;20351;-74
2023/07/07 07:19:55;;;;;;;2.85;0.93;;;;;;;27.98;53.17;101236.94;5132498;28;20611;-74
2023/07/07 07:22:25;;;;;;;1.60;0.90;;;;;;;27.86;54.87;101239.00;5149682;28;20065;-75
2023/07/07 07:24:56;;;;;;;2.20;0.73;;;;;;;28.48;53.57;101227.47;5133694;28;20443;-75
2023/07/07 07:27:26;;;;;;;1.83;1.03;;;;;;;28.86;53.52;101228.00;5156445;28;20038;-75
2023/07/07 07:29:56;;;;;;;2.45;0.95;;;;;;;28.97;54.24;101231.34;5142098;28;20281;-75
2023/07/07 07:32:27;;;;;;;2.22;0.90;;;;;;;28.26;54.51;101235.91;5140508;28;20150;-75
2023/07/07 07:34:57;;;;;;;1.83;0.70;;;;;;;28.40;54.41;101230.91;5136797;28;20522;-76
2023/07/07 07:37:27;;;;;;;3.03;1.45;;;;;;;29.18;54.17;101223.75;5134185;28;20137;-75
2023/07/07 07:39:58;;;;;;;3.33;1.00;;;;;;;28.39;55.19;101223.84;5136761;28;20117;-77
2023/07/07 07:42:29;;;;;;;2.53;1.10;;;;;;;27.96;55.92;101233.56;5142928;28;20030;-75
2023/07/07 07:44:59;;;;;;;2.60;0.80;;;;;;;29.62;53.69;101225.41;5158043;28;20556;-76
2023/07/07 07:47:29;;;;;;;1.45;0.80;;;;;;;28.39;56.85;101234.59;5138708;28;20038;-75
2023/07/07 07:50:00;;;;;;;1.43;0.77;;;;;;;29.45;55.31;101236.22;5138007;28;20033;-76
2023/07/07 07:52:30;;;;;;;2.65;0.77;;;;;;;30.59;52.17;101226.66;5141027;28;20274;-75
2023/07/07 07:55:01;;;;;;;2.17;0.70;;;;;;;30.88;51.26;101230.56;5153776;28;20038;-76
2023/07/07 07:57:31;;;;;;;0.90;0.80;;;;;;;31.25;49.47;101226.34;5138114;28;20695;-75
2023/07/07 08:00:04;;;;;;;1.38;0.80;;;;;;;31.00;48.84;101237.31;5138764;28;20026;-74
2023/07/07 08:02:35;;;;;;;1.25;0.65;;;;;;;31.08;50.00;101229.19;5139151;28;20065;-76
2023/07/07 08:05:07;;;;;;;1.45;0.70;;;;;;;30.25;50.62;101234.78;5138205;28;20120;-74
2023/07/07 08:07:38;;;;;;;4.30;0.90;;;;;;;30.07;52.31;101235.94;5139560;28;20018;-75
2023/07/07 08:10:09;;;;;;;1.98;1.00;;;;;;;29.81;54.39;101235.09;5140051;28;20026;-75
2023/07/07 08:12:39;;;;;;;0.93;0.60;;;;;;;31.17;51.96;101229.03;5145669;28;20026;-76
2023/07/07 08:15:11;;;;;;;2.17;0.90;;;;;;;31.30;51.21;101229.38;5137464;28;20070;-74
2023/07/07 08:17:41;;;;;;;2.10;0.95;;;;;;;30.79;52.05;101230.72;5137943;28;20366;-76
2023/07/07 08:20:19;;;;;;;2.53;0.70;;;;;;;31.75;51.81;101229.63;5128443;28;20061;-78
2023/07/07 08:22:49;;;;;;;2.10;0.88;;;;;;;32.85;47.30;101236.50;5134830;28;20125;-74
2023/07/07 08:25:19;;;;;;;1.77;0.77;;;;;;;32.25;50.11;101234.69;5155522;28;20113;-75
2023/07/07 08:27:52;;;;;;;1.90;0.70;;;;;;;33.66;45.96;101232.03;5137983;28;20858;-77
2023/07/07 08:30:22;;;;;;;2.05;0.73;;;;;;;31.98;48.32;101235.97;5137773;28;20563;-75
2023/07/07 08:32:54;;;;;;;2.50;0.87;;;;;;;32.38;48.89;101233.06;5137827;28;20030;-75
2023/07/07 08:35:24;;;;;;;1.20;0.80;;;;;;;33.30;49.30;101221.03;5143224;28;20369;-75
2023/07/07 08:37:54;;;;;;;2.50;0.75;;;;;;;32.83;46.89;101222.31;5137194;28;20120;-77
2023/07/07 08:40:35;;;;;;;5.33;1.00;;;;;;;32.11;47.89;101233.53;5155286;28;20037;-76
2023/07/07 08:43:05;;;;;;;2.33;0.80;;;;;;;32.24;47.32;101227.59;5137866;28;20281;-76
2023/07/07 08:45:38;;;;;;;2.55;1.05;;;;;;;32.12;47.99;101228.97;5137907;28;20073;-75
2023/07/07 08:48:42;;;;;;;2.40;0.90;;;;;;;32.10;47.85;101231.84;5136381;28;20034;-75
2023/07/07 08:51:31;;;;;;;1.45;0.80;;;;;;;32.33;47.13;101221.94;5135956;28;20077;-75
2023/07/07 08:54:25;;;;;;;1.42;0.80;;;;;;;32.78;45.76;101230.13;5135570;28;20026;-75
2023/07/07 08:57:18;;;;;;;1.60;0.85;;;;;;;32.55;47.33;101240.06;5150712;28;20389;-77
2023/07/07 09:00:07;;;;;;;0.82;0.57;;;;;;;30.69;46.36;101232.72;5134466;28;20034;-73
2023/07/07 09:02:44;;;;;;;0.88;0.68;;;;;;;35.48;40.82;101219.44;5155760;28;20031;-74
2023/07/07 09:05:43;;;;;;;1.45;0.80;;;;;;;35.12;41.97;101223.34;5157406;28;20307;-75
2023/07/07 09:08:25;;;;;;;1.67;0.73;;;;;;;34.66;41.63;101221.22;5093226;28;20045;-74
2023/07/07 09:11:16;;;;;;;1.20;0.77;;;;;;;34.39;40.45;101224.66;5159467;28;20033;-75
2023/07/07 09:13:52;;;;;;;1.80;0.80;;;;;;;33.79;42.37;101226.78;5154034;28;20198;-77
2023/07/07 09:16:32;;;;;;;2.42;1.00;;;;;;;32.87;43.79;101231.75;5141083;28;20038;-75
2023/07/07 09:19:11;;;;;;;1.73;0.88;;;;;;;32.60;43.86;101226.84;5156652;28;20045;-73
2023/07/07 09:21:53;;;;;;;1.55;0.85;;;;;;;32.93;44.25;101236.41;5140068;28;20053;-75
2023/07/07 09:24:36;;;;;;;1.88;1.00;;;;;;;32.22;43.65;101237.75;5141636;28;20034;-75
2023/07/07 09:27:16;;;;;;;1.27;0.70;;;;;;;33.67;41.78;101233.69;5144437;28;20030;-73
2023/07/07 09:29:53;;;;;;;1.10;0.70;;;;;;;32.71;43.54;101226.44;5137584;28;20033;-75
2023/07/07 09:32:23;;;;;;;1.63;1.00;;;;;;;32.97;40.45;101225.03;5143230;28;20026;-74
2023/07/07 09:34:54;;;;;;;1.00;0.70;;;;;;;34.15;41.87;101231.25;5160169;28;20034;-75
2023/07/07 09:38:03;;;;;;;1.95;1.05;;;;;;;33.63;41.77;101235.94;5140495;28;20666;-76
2023/07/07 09:40:51;;;;;;;1.38;0.65;;;;;;;33.60;42.27;101233.59;5103009;29;20515;-75
2023/07/07 09:43:44;;;;;;;1.27;0.80;;;;;;;33.26;43.17;101229.72;5140150;28;20085;-75
2023/07/07 09:46:26;;;;;;;1.25;0.70;;;;;;;33.97;43.41;101238.13;5158989;28;20036;-76
2023/07/07 09:49:10;;;;;;;1.65;0.80;;;;;;;33.08;43.61;101240.03;5142308;28;20022;-74
2023/07/07 09:52:05;;;;;;;2.45;1.00;;;;;;;32.63;42.01;101231.03;5157561;28;20026;-75
2023/07/07 09:54:37;;;;;;;1.15;0.73;;;;;;;32.63;40.67;101220.22;5155273;28;20104;-74
2023/07/07 09:57:34;;;;;;;4.82;0.93;;;;;;;33.58;40.10;101230.25;5161248;28;20042;-76
2023/07/07 10:00:05;;;;;;;1.30;0.80;;;;;;;33.56;42.04;101226.03;5138613;28;20472;-75
2023/07/07 10:02:35;;;;;;;1.67;0.80;;;;;;;34.01;42.71;101223.13;5139853;28;20265;-74
2023/07/07 10:05:07;;;;;;;1.37;0.80;;;;;;;33.32;41.27;101223.56;5141273;28;20098;-77
2023/07/07 10:07:40;;;;;;;0.88;0.65;;;;;;;32.96;42.87;101228.78;5140065;28;20364;-75
2023/07/07 10:10:13;;;;;;;1.65;0.80;;;;;;;32.62;42.92;101223.94;5140206;28;20335;-75
2023/07/07 10:12:46;;;;;;;2.50;1.08;;;;;;;32.17;45.71;101222.03;5144446;28;20064;-74
2023/07/07 10:15:42;;;;;;;1.75;1.00;;;;;;;33.14;43.07;101221.16;5137461;28;20023;-74
2023/07/07 10:18:22;;;;;;;2.35;0.90;;;;;;;32.14;42.47;101219.66;5140613;28;20041;-76
2023/07/07 10:20:56;;;;;;;2.55;0.90;;;;;;;30.40;42.46;101221.53;5137596;28;20033;-76
2023/07/07 10:23:28;;;;;;;2.60;1.10;;;;;;;30.41;46.62;101225.91;5156193;28;20377;-76
2023/07/07 10:25:58;;;;;;;2.85;1.00;;;;;;;30.11;44.28;101226.50;5139603;28;20206;-73
2023/07/07 10:28:29;;;;;;;1.65;1.00;;;;;;;30.42;44.42;101219.50;5140956;28;20399;-74
2023/07/07 10:31:01;;;;;;;2.05;0.98;;;;;;;29.95;45.15;101221.84;5139034;28;20022;-74
2023/07/07 10:33:32;;;;;;;5.20;1.13;;;;;;;29.88;46.26;101226.22;5139800;28;20315;-73
2023/07/07 10:36:24;;;;;;;3.45;1.10;;;;;;;29.52;46.18;101234.59;5156073;28;20056;-76
2023/07/07 10:38:56;;;;;;;2.45;0.98;;;;;;;28.94;46.65;101217.31;5136862;28;20030;-76
2023/07/07 10:41:27;;;;;;;1.60;0.88;;;;;;;29.38;45.95;101213.63;5160396;28;20033;-74
2023/07/07 10:43:58;;;;;;;2.08;0.82;;;;;;;29.12;45.69;101204.66;5138462;28;20026;-73
2023/07/07 10:46:28;;;;;;;2.90;0.80;;;;;;;29.16;48.66;101208.72;5139767;28;20500;-74
2023/07/07 10:48:58;;;;;;;1.90;0.98;;;;;;;29.25;47.82;101211.31;5139716;28;20125;-73
2023/07/07 10:51:43;;;;;;;2.03;0.93;;;;;;;28.46;46.60;101208.78;5140420;28;20169;-74
2023/07/07 10:54:28;;;;;;;2.35;0.70;;;;;;;28.71;49.44;101205.34;5138870;28;20022;-75
2023/07/07 10:57:15;;;;;;;1.20;0.90;;;;;;;28.87;48.48;101200.91;5153024;28;20114;-73
2023/07/07 10:59:54;;;;;;;2.33;1.00;;;;;;;28.88;46.91;101201.78;5135787;28;20399;-75
2023/07/07 11:02:35;;;;;;;1.30;0.82;;;;;;;28.75;50.76;101209.41;5154003;28;20182;-72
2023/07/07 11:05:14;;;;;;;2.97;1.00;;;;;;;28.87;52.04;101197.41;5155288;28;20065;-74
2023/07/07 11:08:06;;;;;;;2.72;1.10;;;;;;;29.09;53.35;101205.81;5152856;28;20054;-73
2023/07/07 11:10:53;;;;;;;2.38;1.08;;;;;;;29.06;50.21;101200.75;5157944;28;20033;-76
2023/07/07 11:13:27;;;;;;;3.50;1.13;;;;;;;29.29;52.32;101201.09;5136182;28;20026;-73
2023/07/07 11:16:15;;;;;;;1.77;0.90;;;;;;;28.94;51.74;101204.72;5148309;28;20199;-73
2023/07/07 11:19:09;;;;;;;3.03;1.15;;;;;;;29.10;46.93;101209.38;5140537;28;20032;-75
2023/07/07 11:22:00;;;;;;;3.13;1.00;;;;;;;28.53;46.88;101203.63;5142811;28;20025;-74
2023/07/07 11:24:31;;;;;;;2.13;1.00;;;;;;;28.86;46.59;101209.16;5153798;28;20076;-75
2023/07/07 11:27:13;;;;;;;2.63;1.02;;;;;;;28.55;46.00;101207.88;5153119;28;20027;-75
2023/07/07 11:29:54;;;;;;;2.97;0.95;;;;;;;28.70;52.64;101209.03;5155949;28;20026;-75
2023/07/07 11:32:47;;;;;;;2.10;1.05;;;;;;;28.96;53.36;101213.50;5150001;28;20033;-74
2023/07/07 11:36:03;;;;;;;1.75;0.90;;;;;;;29.02;49.33;101209.28;5137666;28;20390;-75
2023/07/07 11:38:45;;;;;;;2.30;0.98;;;;;;;28.66;47.71;101207.63;5099117;29;20049;-74
2023/07/07 11:41:38;;;;;;;2.95;1.20;;;;;;;28.81;45.86;101200.69;5101375;28;20031;-74
2023/07/07 11:44:09;;;;;;;3.10;1.10;;;;;;;28.73;47.16;101199.78;5129950;28;20117;-75
2023/07/07 11:46:54;;;;;;;2.57;1.00;;;;;;;28.35;48.50;101187.50;5158504;28;20178;-75
2023/07/07 11:49:51;;;;;;;2.30;0.93;;;;;;;28.35;48.89;101192.03;5140814;28;20277;-74
2023/07/07 11:52:27;;;;;;;1.52;0.88;;;;;;;28.64;46.01;101196.16;5111917;28;20514;-74
2023/07/07 11:55:16;;;;;;;1.48;0.80;;;;;;;28.37;46.34;101198.94;5154687;28;20022;-75
2023/07/07 11:57:52;;;;;;;1.63;1.05;;;;;;;27.65;46.67;101192.63;5140891;28;20143;-74
2023/07/07 12:00:32;;;;;;;3.25;1.30;;;;;;;28.13;48.83;101189.75;5155331;28;20068;-74